sensor_id;sensor_type;location;lat;lon;timestamp;pressure;altitude;pressure_sealevel;temperature;humidity
39265;BME280;42646;51.910;7.724;2023-05-07T00:01:44;101047.97;;;14.70;100.00
39265;BME280;42646;51.910;7.724;2023-05-07T00:04:13;101048.97;;;14.69;100.00
39265;BME280;42646;51.910;7.724;2023-05-07T00:06:42;101049.13;;;14.67;100.00
39265;BME280;42646;51.910;7.724;2023-05-07T00:09:09;101053.63;;;14.67;100.00
39265;BME280;42646;51.910;7.724;2023-05-07T00:11:37;101044.94;;;14.65;100.00
39265;BME280;42646;51.910;7.724;2023-05-07T00:14:05;101053.94;;;14.64;100.00
39265;BME280;42646;51.910;7.724;2023-05-07T00:16:33;101049.59;;;14.63;100.00
39265;BME280;42646;51.910;7.724;2023-05-07T00:19:01;101055.09;;;14.61;100.00
39265;BME280;42646;51.910;7.724;2023-05-07T00:21:31;101063.28;;;14.60;100.00
39265;BME280;42646;51.910;7.724;2023-05-07T00:23:59;101063.28;;;14.60;100.00
39265;BME280;42646;51.910;7.724;2023-05-07T00:26:27;101061.63;;;14.59;100.00
39265;BME280;42646;51.910;7.724;2023-05-07T00:28:55;101065.13;;;14.59;100.00
39265;BME280;42646;51.910;7.724;2023-05-07T00:31:23;101054.72;;;14.56;100.00
39265;BME280;42646;51.910;7.724;2023-05-07T00:33:51;101048.53;;;14.56;100.00
39265;BME280;42646;51.910;7.724;2023-05-07T00:36:20;101053.03;;;14.55;100.00
39265;BME280;42646;51.910;7.724;2023-05-07T00:38:49;101055.03;;;14.53;100.00
39265;BME280;42646;51.910;7.724;2023-05-07T00:41:17;101064.91;;;14.53;100.00
39265;BME280;42646;51.910;7.724;2023-05-07T00:43:45;101062.38;;;14.51;100.00
39265;BME280;42646;51.910;7.724;2023-05-07T00:46:14;101061.53;;;14.51;100.00
39265;BME280;42646;51.910;7.724;2023-05-07T00:48:44;101069.56;;;14.51;100.00
39265;BME280;42646;51.910;7.724;2023-05-07T00:51:12;101068.72;;;14.50;100.00
39265;BME280;42646;51.910;7.724;2023-05-07T00:53:40;101062.53;;;14.50;100.00
39265;BME280;42646;51.910;7.724;2023-05-07T00:56:10;101061.84;;;14.48;100.00
39265;BME280;42646;51.910;7.724;2023-05-07T00:58:38;101069.88;;;14.48;100.00
39265;BME280;42646;51.910;7.724;2023-05-07T01:01:06;101066.38;;;14.47;100.00
39265;BME280;42646;51.910;7.724;2023-05-07T01:03:35;101063.78;;;14.46;100.00
39265;BME280;42646;51.910;7.724;2023-05-07T01:06:03;101057.59;;;14.45;100.00
39265;BME280;42646;51.910;7.724;2023-05-07T01:08:32;101055.09;;;14.43;100.00
39265;BME280;42646;51.910;7.724;2023-05-07T01:11:01;101055.09;;;14.43;100.00
39265;BME280;42646;51.910;7.724;2023-05-07T01:13:32;101050.72;;;14.42;100.00
39265;BME280;42646;51.910;7.724;2023-05-07T01:16:01;101051.72;;;14.41;100.00
39265;BME280;42646;51.910;7.724;2023-05-07T01:18:30;101050.88;;;14.41;100.00
39265;BME280;42646;51.910;7.724;2023-05-07T01:20:59;101052.00;;;14.38;100.00
39265;BME280;42646;51.910;7.724;2023-05-07T01:23:30;101053.84;;;14.38;100.00
39265;BME280;42646;51.910;7.724;2023-05-07T01:26:03;101052.19;;;14.37;100.00
39265;BME280;42646;51.910;7.724;2023-05-07T01:28:33;101058.53;;;14.36;100.00
39265;BME280;42646;51.910;7.724;2023-05-07T01:31:03;101049.78;;;14.34;100.00
39265;BME280;42646;51.910;7.724;2023-05-07T01:33:34;101047.94;;;14.34;100.00
39265;BME280;42646;51.910;7.724;2023-05-07T01:36:04;101045.75;;;14.30;100.00
39265;BME280;42646;51.910;7.724;2023-05-07T01:38:37;101052.09;;;14.29;100.00
39265;BME280;42646;51.910;7.724;2023-05-07T01:41:06;101049.56;;;14.27;100.00
39265;BME280;42646;51.910;7.724;2023-05-07T01:43:35;101049.72;;;14.26;100.00
39265;BME280;42646;51.910;7.724;2023-05-07T01:46:03;101046.38;;;14.24;100.00
39265;BME280;42646;51.910;7.724;2023-05-07T01:48:32;101041.16;;;14.22;100.00
39265;BME280;42646;51.910;7.724;2023-05-07T01:51:00;101042.97;;;14.22;100.00
39265;BME280;42646;51.910;7.724;2023-05-07T01:53:36;101043.97;;;14.21;100.00
39265;BME280;42646;51.910;7.724;2023-05-07T01:56:05;101048.50;;;14.20;100.00
39265;BME280;42646;51.910;7.724;2023-05-07T01:58:36;101044.16;;;14.19;100.00
39265;BME280;42646;51.910;7.724;2023-05-07T02:01:04;101048.78;;;14.17;100.00
39265;BME280;42646;51.910;7.724;2023-05-07T02:03:33;101042.75;;;14.15;100.00
39265;BME280;42646;51.910;7.724;2023-05-07T02:06:08;101045.59;;;14.13;100.00
39265;BME280;42646;51.910;7.724;2023-05-07T02:08:40;101046.72;;;14.11;100.00
39265;BME280;42646;51.910;7.724;2023-05-07T02:11:09;101056.59;;;14.10;100.00
39265;BME280;42646;51.910;7.724;2023-05-07T02:13:37;101050.41;;;14.10;100.00
39265;BME280;42646;51.910;7.724;2023-05-07T02:16:05;101049.72;;;14.08;100.00
39265;BME280;42646;51.910;7.724;2023-05-07T02:18:34;101054.38;;;14.06;100.00
39265;BME280;42646;51.910;7.724;2023-05-07T02:21:02;101052.69;;;14.05;100.00
39265;BME280;42646;51.910;7.724;2023-05-07T02:23:31;101055.50;;;14.03;100.00
39265;BME280;42646;51.910;7.724;2023-05-07T02:26:00;101062.03;;;14.01;100.00
39265;BME280;42646;51.910;7.724;2023-05-07T02:28:28;101063.03;;;14.00;100.00
39265;BME280;42646;51.910;7.724;2023-05-07T02:30:59;101054.28;;;13.98;100.00
39265;BME280;42646;51.910;7.724;2023-05-07T02:33:28;101065.13;;;13.96;100.00
39265;BME280;42646;51.910;7.724;2023-05-07T02:36:05;101060.78;;;13.95;100.00
39265;BME280;42646;51.910;7.724;2023-05-07T02:38:35;101054.72;;;13.93;100.00
39265;BME280;42646;51.910;7.724;2023-05-07T02:41:05;101051.22;;;13.93;100.00
39265;BME280;42646;51.910;7.724;2023-05-07T02:43:33;101054.88;;;13.92;100.00
39265;BME280;42646;51.910;7.724;2023-05-07T02:46:03;101051.38;;;13.91;100.00
39265;BME280;42646;51.910;7.724;2023-05-07T02:48:33;101052.38;;;13.90;100.00
39265;BME280;42646;51.910;7.724;2023-05-07T02:51:07;101048.00;;;13.89;100.00
39265;BME280;42646;51.910;7.724;2023-05-07T02:53:36;101045.50;;;13.87;100.00
39265;BME280;42646;51.910;7.724;2023-05-07T02:56:08;101047.47;;;13.85;100.00
39265;BME280;42646;51.910;7.724;2023-05-07T02:58:36;101051.13;;;13.84;100.00
39265;BME280;42646;51.910;7.724;2023-05-07T03:01:06;101040.88;;;13.80;100.00
39265;BME280;42646;51.910;7.724;2023-05-07T03:03:39;101049.72;;;13.80;100.00
39265;BME280;42646;51.910;7.724;2023-05-07T03:06:07;101043.03;;;13.76;100.00
39265;BME280;42646;51.910;7.724;2023-05-07T03:08:35;101041.31;;;13.75;100.00
39265;BME280;42646;51.910;7.724;2023-05-07T03:11:06;101044.16;;;13.74;100.00
39265;BME280;42646;51.910;7.724;2023-05-07T03:13:35;101049.66;;;13.72;100.00
39265;BME280;42646;51.910;7.724;2023-05-07T03:16:28;101041.06;;;13.69;100.00
39265;BME280;42646;51.910;7.724;2023-05-07T03:18:56;101037.72;;;13.67;100.00
39265;BME280;42646;51.910;7.724;2023-05-07T03:21:24;101038.16;;;13.62;100.00
39265;BME280;42646;51.910;7.724;2023-05-07T03:23:53;101039.31;;;13.59;100.00
39265;BME280;42646;51.910;7.724;2023-05-07T03:26:21;101039.47;;;13.58;100.00
39265;BME280;42646;51.910;7.724;2023-05-07T03:28:51;101032.88;;;13.52;100.00
39265;BME280;42646;51.910;7.724;2023-05-07T03:31:20;101037.34;;;13.52;100.00
39265;BME280;42646;51.910;7.724;2023-05-07T03:33:50;101040.19;;;13.50;100.00
39265;BME280;42646;51.910;7.724;2023-05-07T03:36:19;101039.50;;;13.48;100.00
39265;BME280;42646;51.910;7.724;2023-05-07T03:38:47;101039.50;;;13.48;100.00
39265;BME280;42646;51.910;7.724;2023-05-07T03:41:18;101041.19;;;13.49;100.00
39265;BME280;42646;51.910;7.724;2023-05-07T03:43:46;101045.13;;;13.45;100.00
39265;BME280;42646;51.910;7.724;2023-05-07T03:46:15;101052.78;;;13.40;100.00
39265;BME280;42646;51.910;7.724;2023-05-07T03:48:46;101051.06;;;13.39;100.00
39265;BME280;42646;51.910;7.724;2023-05-07T03:51:16;101061.06;;;13.37;100.00
39265;BME280;42646;51.910;7.724;2023-05-07T03:53:43;101060.38;;;13.35;100.00
39265;BME280;42646;51.910;7.724;2023-05-07T03:56:11;101071.66;;;13.29;100.00
39265;BME280;42646;51.910;7.724;2023-05-07T03:58:40;101066.44;;;13.27;100.00
39265;BME280;42646;51.910;7.724;2023-05-07T04:01:10;101064.06;;;13.24;100.00
39265;BME280;42646;51.910;7.724;2023-05-07T04:03:40;101072.25;;;13.23;100.00
39265;BME280;42646;51.910;7.724;2023-05-07T04:06:09;101067.72;;;13.23;100.00
39265;BME280;42646;51.910;7.724;2023-05-07T04:08:37;101073.06;;;13.23;100.00
39265;BME280;42646;51.910;7.724;2023-05-07T04:11:07;101066.91;;;13.23;100.00
39265;BME280;42646;51.910;7.724;2023-05-07T04:13:36;101075.88;;;13.22;100.00
39265;BME280;42646;51.910;7.724;2023-05-07T04:16:06;101070.53;;;13.22;100.00
39265;BME280;42646;51.910;7.724;2023-05-07T04:18:36;101073.19;;;13.22;100.00
39265;BME280;42646;51.910;7.724;2023-05-07T04:21:32;101073.31;;;13.20;100.00
39265;BME280;42646;51.910;7.724;2023-05-07T04:24:02;101075.59;;;13.15;100.00
39265;BME280;42646;51.910;7.724;2023-05-07T04:26:30;101073.91;;;13.14;100.00
39265;BME280;42646;51.910;7.724;2023-05-07T04:29:00;101063.38;;;13.13;100.00
39265;BME280;42646;51.910;7.724;2023-05-07T04:31:32;101073.22;;;13.12;100.00
39265;BME280;42646;51.910;7.724;2023-05-07T04:34:02;101066.03;;;13.13;100.00
39265;BME280;42646;51.910;7.724;2023-05-07T04:36:32;101072.50;;;13.10;100.00
39265;BME280;42646;51.910;7.724;2023-05-07T04:39:05;101077.84;;;13.10;100.00
39265;BME280;42646;51.910;7.724;2023-05-07T04:41:35;101084.59;;;13.14;100.00
39265;BME280;42646;51.910;7.724;2023-05-07T04:44:05;101078.00;;;13.08;100.00
39265;BME280;42646;51.910;7.724;2023-05-07T04:46:34;101081.38;;;13.10;100.00
39265;BME280;42646;51.910;7.724;2023-05-07T04:49:02;101088.81;;;13.07;100.00
39265;BME280;42646;51.910;7.724;2023-05-07T04:51:29;101076.31;;;13.07;100.00
39265;BME280;42646;51.910;7.724;2023-05-07T04:54:00;101079.81;;;13.08;100.00
39265;BME280;42646;51.910;7.724;2023-05-07T04:56:29;101078.00;;;13.08;100.00
39265;BME280;42646;51.910;7.724;2023-05-07T04:58:59;101085.84;;;13.10;100.00
39265;BME280;42646;51.910;7.724;2023-05-07T05:01:28;101082.66;;;13.06;100.00
39265;BME280;42646;51.910;7.724;2023-05-07T05:03:57;101087.97;;;13.06;100.00
39265;BME280;42646;51.910;7.724;2023-05-07T05:06:49;101091.19;;;13.10;100.00
39265;BME280;42646;51.910;7.724;2023-05-07T05:09:22;101080.38;;;13.12;100.00
39265;BME280;42646;51.910;7.724;2023-05-07T05:11:50;101088.25;;;13.13;100.00
39265;BME280;42646;51.910;7.724;2023-05-07T05:14:18;101089.78;;;13.16;100.00
39265;BME280;42646;51.910;7.724;2023-05-07T05:16:46;101093.84;;;13.20;100.00
39265;BME280;42646;51.910;7.724;2023-05-07T05:19:14;101096.28;;;13.23;100.00
39265;BME280;42646;51.910;7.724;2023-05-07T05:21:43;101089.09;;;13.23;100.00
39265;BME280;42646;51.910;7.724;2023-05-07T05:24:15;101096.28;;;13.23;100.00
39265;BME280;42646;51.910;7.724;2023-05-07T05:26:46;101094.44;;;13.23;100.00
39265;BME280;42646;51.910;7.724;2023-05-07T05:29:14;101097.13;;;13.23;100.00
39265;BME280;42646;51.910;7.724;2023-05-07T05:32:08;101104.84;;;13.26;100.00
39265;BME280;42646;51.910;7.724;2023-05-07T05:34:36;101109.91;;;13.29;100.00
39265;BME280;42646;51.910;7.724;2023-05-07T05:37:05;101105.09;;;13.33;100.00
39265;BME280;42646;51.910;7.724;2023-05-07T05:39:34;101101.59;;;13.32;100.00
39265;BME280;42646;51.910;7.724;2023-05-07T05:42:04;101103.56;;;13.30;100.00
39265;BME280;42646;51.910;7.724;2023-05-07T05:44:34;101108.75;;;13.32;100.00
39265;BME280;42646;51.910;7.724;2023-05-07T05:47:02;101104.81;;;13.36;100.00
39265;BME280;42646;51.910;7.724;2023-05-07T05:49:31;101108.19;;;13.38;100.00
39265;BME280;42646;51.910;7.724;2023-05-07T05:52:01;101110.69;;;13.40;100.00
39265;BME280;42646;51.910;7.724;2023-05-07T05:54:30;101123.63;;;13.44;100.00
39265;BME280;42646;51.910;7.724;2023-05-07T05:56:58;101111.81;;;13.47;100.00
39265;BME280;42646;51.910;7.724;2023-05-07T05:59:27;101122.38;;;13.48;100.00
39265;BME280;42646;51.910;7.724;2023-05-07T06:01:55;101109.00;;;13.48;100.00
39265;BME280;42646;51.910;7.724;2023-05-07T06:04:23;101117.69;;;13.50;100.00
39265;BME280;42646;51.910;7.724;2023-05-07T06:06:51;101120.22;;;13.52;100.00
39265;BME280;42646;51.910;7.724;2023-05-07T06:09:19;101119.09;;;13.54;100.00
39265;BME280;42646;51.910;7.724;2023-05-07T06:11:48;101120.19;;;13.61;100.00
39265;BME280;42646;51.910;7.724;2023-05-07T06:14:16;101122.03;;;13.61;100.00
39265;BME280;42646;51.910;7.724;2023-05-07T06:16:46;101123.56;;;13.63;100.00
39265;BME280;42646;51.910;7.724;2023-05-07T06:19:14;101127.09;;;13.64;100.00
39265;BME280;42646;51.910;7.724;2023-05-07T06:21:44;101137.34;;;13.69;100.00
39265;BME280;42646;51.910;7.724;2023-05-07T06:24:12;101137.22;;;13.70;100.00
39265;BME280;42646;51.910;7.724;2023-05-07T06:26:40;101137.06;;;13.72;100.00
39265;BME280;42646;51.910;7.724;2023-05-07T06:29:07;101140.13;;;13.77;100.00
39265;BME280;42646;51.910;7.724;2023-05-07T06:32:13;101136.03;;;13.82;100.00
39265;BME280;42646;51.910;7.724;2023-05-07T06:34:43;101139.53;;;13.83;100.00
39265;BME280;42646;51.910;7.724;2023-05-07T06:37:13;101142.22;;;13.83;100.00
39265;BME280;42646;51.910;7.724;2023-05-07T06:40:02;101144.75;;;13.84;100.00
39265;BME280;42646;51.910;7.724;2023-05-07T06:42:31;101143.31;;;13.90;100.00
39265;BME280;42646;51.910;7.724;2023-05-07T06:45:16;101148.22;;;13.95;100.00
39265;BME280;42646;51.910;7.724;2023-05-07T06:47:46;101154.81;;;14.00;100.00
39265;BME280;42646;51.910;7.724;2023-05-07T06:50:17;101156.19;;;14.04;100.00
39265;BME280;42646;51.910;7.724;2023-05-07T06:52:46;101157.00;;;14.05;100.00
39265;BME280;42646;51.910;7.724;2023-05-07T06:55:39;101157.56;;;14.08;100.00
39265;BME280;42646;51.910;7.724;2023-05-07T06:58:12;101158.66;;;14.15;100.00
39265;BME280;42646;51.910;7.724;2023-05-07T07:00:42;101159.38;;;14.18;100.00
39265;BME280;42646;51.910;7.724;2023-05-07T07:03:12;101158.06;;;14.22;100.00
39265;BME280;42646;51.910;7.724;2023-05-07T07:05:41;101166.03;;;14.31;100.00
39265;BME280;42646;51.910;7.724;2023-05-07T07:08:09;101159.84;;;14.31;100.00
39265;BME280;42646;51.910;7.724;2023-05-07T07:10:38;101160.38;;;14.34;100.00
39265;BME280;42646;51.910;7.724;2023-05-07T07:13:06;101158.25;;;14.38;100.00
39265;BME280;42646;51.910;7.724;2023-05-07T07:15:38;101162.59;;;14.39;100.00
39265;BME280;42646;51.910;7.724;2023-05-07T07:18:09;101164.16;;;14.41;100.00
39265;BME280;42646;51.910;7.724;2023-05-07T07:20:39;101166.50;;;14.44;100.00
39265;BME280;42646;51.910;7.724;2023-05-07T07:23:12;101162.13;;;14.53;100.00
39265;BME280;42646;51.910;7.724;2023-05-07T07:25:41;101166.16;;;14.57;100.00
39265;BME280;42646;51.910;7.724;2023-05-07T07:28:10;101161.66;;;14.58;100.00
39265;BME280;42646;51.910;7.724;2023-05-07T07:30:39;101161.66;;;14.58;100.00
39265;BME280;42646;51.910;7.724;2023-05-07T07:33:07;101168.13;;;14.65;100.00
39265;BME280;42646;51.910;7.724;2023-05-07T07:35:37;101166.28;;;14.65;100.00
39265;BME280;42646;51.910;7.724;2023-05-07T07:38:07;101170.03;;;14.73;100.00
39265;BME280;42646;51.910;7.724;2023-05-07T07:40:35;101165.88;;;14.78;100.00
39265;BME280;42646;51.910;7.724;2023-05-07T07:43:05;101168.63;;;14.86;100.00
39265;BME280;42646;51.910;7.724;2023-05-07T07:45:57;101169.56;;;14.95;100.00
39265;BME280;42646;51.910;7.724;2023-05-07T07:48:26;101164.44;;;15.02;100.00
39265;BME280;42646;51.910;7.724;2023-05-07T07:50:57;101166.88;;;15.13;100.00
39265;BME280;42646;51.910;7.724;2023-05-07T07:53:27;101166.53;;;15.16;100.00
39265;BME280;42646;51.910;7.724;2023-05-07T07:55:56;101169.75;;;15.19;100.00
39265;BME280;42646;51.910;7.724;2023-05-07T07:58:31;101172.13;;;15.22;100.00
39265;BME280;42646;51.910;7.724;2023-05-07T08:00:59;101173.50;;;15.27;100.00
39265;BME280;42646;51.910;7.724;2023-05-07T08:03:27;101170.88;;;15.35;100.00
39265;BME280;42646;51.910;7.724;2023-05-07T08:06:00;101170.09;;;15.42;100.00
39265;BME280;42646;51.910;7.724;2023-05-07T08:08:30;101166.47;;;15.52;100.00
39265;BME280;42646;51.910;7.724;2023-05-07T08:10:58;101169.75;;;15.63;100.00
39265;BME280;42646;51.910;7.724;2023-05-07T08:13:30;101167.47;;;15.76;99.77
39265;BME280;42646;51.910;7.724;2023-05-07T08:15:59;101175.22;;;15.80;98.50
39265;BME280;42646;51.910;7.724;2023-05-07T08:18:27;101184.78;;;15.82;97.36
39265;BME280;42646;51.910;7.724;2023-05-07T08:20:58;101178.09;;;15.86;97.24
39265;BME280;42646;51.910;7.724;2023-05-07T08:23:27;101177.78;;;15.89;97.38
39265;BME280;42646;51.910;7.724;2023-05-07T08:25:57;101176.16;;;15.96;98.02
39265;BME280;42646;51.910;7.724;2023-05-07T08:28:27;101182.06;;;16.08;97.76
39265;BME280;42646;51.910;7.724;2023-05-07T08:30:55;101182.75;;;16.18;96.10
39265;BME280;42646;51.910;7.724;2023-05-07T08:33:30;101179.09;;;16.19;95.51
39265;BME280;42646;51.910;7.724;2023-05-07T08:35:57;101181.78;;;16.19;95.62
39265;BME280;42646;51.910;7.724;2023-05-07T08:38:26;101187.47;;;16.24;95.45
39265;BME280;42646;51.910;7.724;2023-05-07T08:40:54;101188.84;;;16.28;94.27
39265;BME280;42646;51.910;7.724;2023-05-07T08:43:26;101189.00;;;16.27;93.61
39265;BME280;42646;51.910;7.724;2023-05-07T08:45:55;101188.66;;;16.30;93.46
39265;BME280;42646;51.910;7.724;2023-05-07T08:48:27;101187.16;;;16.27;93.63
39265;BME280;42646;51.910;7.724;2023-05-07T08:51:13;101192.72;;;16.34;93.56
39265;BME280;42646;51.910;7.724;2023-05-07T08:53:41;101196.25;;;16.35;92.76
39265;BME280;42646;51.910;7.724;2023-05-07T08:56:14;101191.69;;;16.27;92.59
39265;BME280;42646;51.910;7.724;2023-05-07T08:58:44;101196.25;;;16.35;92.02
39265;BME280;42646;51.910;7.724;2023-05-07T09:01:13;101187.53;;;16.33;91.79
39265;BME280;42646;51.910;7.724;2023-05-07T09:03:44;101190.56;;;16.38;92.32
39265;BME280;42646;51.910;7.724;2023-05-07T09:06:39;101190.94;;;16.51;91.53
39265;BME280;42646;51.910;7.724;2023-05-07T09:09:14;101185.88;;;16.48;92.41
39265;BME280;42646;51.910;7.724;2023-05-07T09:11:41;101189.75;;;16.53;92.95
39265;BME280;42646;51.910;7.724;2023-05-07T09:14:12;101185.25;;;16.62;92.23
39265;BME280;42646;51.910;7.724;2023-05-07T09:16:43;101190.34;;;16.73;91.47
39265;BME280;42646;51.910;7.724;2023-05-07T09:19:11;101187.31;;;16.76;91.26
39265;BME280;42646;51.910;7.724;2023-05-07T09:21:44;101188.00;;;16.78;91.80
39265;BME280;42646;51.910;7.724;2023-05-07T09:24:15;101180.47;;;16.90;90.20
39265;BME280;42646;51.910;7.724;2023-05-07T09:26:44;101174.09;;;16.91;91.89
39265;BME280;42646;51.910;7.724;2023-05-07T09:29:15;101178.97;;;17.04;90.60
39265;BME280;42646;51.910;7.724;2023-05-07T09:31:45;101180.47;;;17.15;88.31
39265;BME280;42646;51.910;7.724;2023-05-07T09:34:17;101181.97;;;17.17;88.85
39265;BME280;42646;51.910;7.724;2023-05-07T09:36:46;101172.91;;;17.18;88.67
39265;BME280;42646;51.910;7.724;2023-05-07T09:39:17;101180.31;;;17.32;88.13
39265;BME280;42646;51.910;7.724;2023-05-07T09:41:47;101185.16;;;17.29;88.16
39265;BME280;42646;51.910;7.724;2023-05-07T09:44:24;101182.81;;;17.34;86.95
39265;BME280;42646;51.910;7.724;2023-05-07T09:46:58;101182.28;;;17.30;86.62
39265;BME280;42646;51.910;7.724;2023-05-07T09:49:35;101186.69;;;17.31;86.30
39265;BME280;42646;51.910;7.724;2023-05-07T09:52:08;101180.31;;;17.32;86.73
39265;BME280;42646;51.910;7.724;2023-05-07T09:54:43;101182.63;;;17.35;88.11
39265;BME280;42646;51.910;7.724;2023-05-07T09:57:14;101193.22;;;17.45;87.40
39265;BME280;42646;51.910;7.724;2023-05-07T09:59:49;101185.97;;;17.54;87.68
39265;BME280;42646;51.910;7.724;2023-05-07T10:02:19;101188.66;;;17.62;87.35
39265;BME280;42646;51.910;7.724;2023-05-07T10:04:51;101182.94;;;17.65;87.16
39265;BME280;42646;51.910;7.724;2023-05-07T10:07:24;101175.53;;;17.75;86.39
39265;BME280;42646;51.910;7.724;2023-05-07T10:09:56;101182.91;;;17.81;85.35
39265;BME280;42646;51.910;7.724;2023-05-07T10:12:35;101181.56;;;17.77;85.16
39265;BME280;42646;51.910;7.724;2023-05-07T10:15:12;101173.81;;;17.82;85.84
39265;BME280;42646;51.910;7.724;2023-05-07T10:17:48;101181.34;;;17.95;85.33
39265;BME280;42646;51.910;7.724;2023-05-07T10:20:20;101173.41;;;18.02;85.87
39265;BME280;42646;51.910;7.724;2023-05-07T10:22:49;101179.44;;;18.12;86.96
39265;BME280;42646;51.910;7.724;2023-05-07T10:25:26;101179.19;;;18.30;85.70
39265;BME280;42646;51.910;7.724;2023-05-07T10:28:01;101185.53;;;18.37;83.93
39265;BME280;42646;51.910;7.724;2023-05-07T10:30:40;101185.53;;;18.37;83.10
39265;BME280;42646;51.910;7.724;2023-05-07T10:33:45;101171.94;;;18.38;82.79
39265;BME280;42646;51.910;7.724;2023-05-07T10:36:18;101186.31;;;18.54;83.72
39265;BME280;42646;51.910;7.724;2023-05-07T10:38:49;101192.31;;;18.64;83.97
39265;BME280;42646;51.910;7.724;2023-05-07T10:41:18;101193.97;;;18.73;82.83
39265;BME280;42646;51.910;7.724;2023-05-07T10:43:49;101192.78;;;18.76;80.82
39265;BME280;42646;51.910;7.724;2023-05-07T10:46:23;101190.19;;;18.82;79.83
39265;BME280;42646;51.910;7.724;2023-05-07T10:49:09;101194.88;;;18.88;79.28
39265;BME280;42646;51.910;7.724;2023-05-07T10:52:14;101197.22;;;18.91;78.61
39265;BME280;42646;51.910;7.724;2023-05-07T10:55:21;101196.22;;;18.92;79.20
39265;BME280;42646;51.910;7.724;2023-05-07T10:58:23;101192.19;;;18.88;79.87
39265;BME280;42646;51.910;7.724;2023-05-07T11:01:03;101177.16;;;18.94;80.48
39265;BME280;42646;51.910;7.724;2023-05-07T11:04:14;101192.53;;;19.08;78.97
39265;BME280;42646;51.910;7.724;2023-05-07T11:07:23;101186.97;;;19.10;78.29
39265;BME280;42646;51.910;7.724;2023-05-07T11:10:00;101189.28;;;19.13;77.03
39265;BME280;42646;51.910;7.724;2023-05-07T11:12:54;101194.69;;;19.13;77.71
39265;BME280;42646;51.910;7.724;2023-05-07T11:15:41;101182.81;;;19.22;76.20
39265;BME280;42646;51.910;7.724;2023-05-07T11:18:46;101177.31;;;19.15;75.96
39265;BME280;42646;51.910;7.724;2023-05-07T11:21:31;101170.06;;;19.16;77.59
39265;BME280;42646;51.910;7.724;2023-05-07T11:24:08;101182.88;;;19.14;78.57
39265;BME280;42646;51.910;7.724;2023-05-07T11:26:50;101173.59;;;19.16;78.28
39265;BME280;42646;51.910;7.724;2023-05-07T11:29:21;101175.19;;;19.26;77.88
39265;BME280;42646;51.910;7.724;2023-05-07T11:31:56;101175.13;;;19.34;76.85
39265;BME280;42646;51.910;7.724;2023-05-07T11:34:31;101181.47;;;19.41;75.11
39265;BME280;42646;51.910;7.724;2023-05-07T11:37:01;101171.84;;;19.38;75.54
39265;BME280;42646;51.910;7.724;2023-05-07T11:39:41;101175.97;;;19.34;75.33
39265;BME280;42646;51.910;7.724;2023-05-07T11:42:25;101175.28;;;19.32;75.42
39265;BME280;42646;51.910;7.724;2023-05-07T11:45:23;101172.53;;;19.40;75.24
39265;BME280;42646;51.910;7.724;2023-05-07T11:47:52;101171.25;;;19.51;74.89
39265;BME280;42646;51.910;7.724;2023-05-07T11:50:22;101166.31;;;19.55;75.34
39265;BME280;42646;51.910;7.724;2023-05-07T11:52:51;101170.25;;;19.67;74.95
39265;BME280;42646;51.910;7.724;2023-05-07T11:55:19;101172.88;;;19.75;74.28
39265;BME280;42646;51.910;7.724;2023-05-07T11:57:48;101165.25;;;19.79;74.37
39265;BME280;42646;51.910;7.724;2023-05-07T12:00:17;101164.50;;;19.85;73.81
39265;BME280;42646;51.910;7.724;2023-05-07T12:02:45;101162.47;;;19.87;74.89
39265;BME280;42646;51.910;7.724;2023-05-07T12:05:14;101161.03;;;20.06;74.62
39265;BME280;42646;51.910;7.724;2023-05-07T12:07:46;101165.41;;;20.07;73.25
39265;BME280;42646;51.910;7.724;2023-05-07T12:10:13;101166.72;;;20.11;72.72
39265;BME280;42646;51.910;7.724;2023-05-07T12:12:41;101164.84;;;20.11;71.93
39265;BME280;42646;51.910;7.724;2023-05-07T12:15:15;101175.06;;;20.16;71.64
39265;BME280;42646;51.910;7.724;2023-05-07T12:17:43;101169.19;;;20.27;70.26
39265;BME280;42646;51.910;7.724;2023-05-07T12:20:39;101174.50;;;20.35;71.49
39265;BME280;42646;51.910;7.724;2023-05-07T12:23:08;101184.88;;;20.46;70.41
39265;BME280;42646;51.910;7.724;2023-05-07T12:25:37;101182.03;;;20.54;69.94
39265;BME280;42646;51.910;7.724;2023-05-07T12:28:05;101181.84;;;20.41;69.84
39265;BME280;42646;51.910;7.724;2023-05-07T12:30:59;101177.84;;;20.37;69.86
39265;BME280;42646;51.910;7.724;2023-05-07T12:33:26;101180.47;;;20.31;70.18
39265;BME280;42646;51.910;7.724;2023-05-07T12:35:57;101179.44;;;20.32;68.99
39265;BME280;42646;51.910;7.724;2023-05-07T12:38:26;101183.94;;;20.24;69.77
39265;BME280;42646;51.910;7.724;2023-05-07T12:40:54;101172.28;;;20.24;70.81
39265;BME280;42646;51.910;7.724;2023-05-07T12:43:24;101174.34;;;20.22;70.41
39265;BME280;42646;51.910;7.724;2023-05-07T12:45:54;101176.66;;;20.25;71.49
39265;BME280;42646;51.910;7.724;2023-05-07T12:48:27;101177.22;;;20.35;70.93
39265;BME280;42646;51.910;7.724;2023-05-07T12:50:56;101167.81;;;20.46;70.24
39265;BME280;42646;51.910;7.724;2023-05-07T12:53:27;101166.28;;;20.58;69.51
39265;BME280;42646;51.910;7.724;2023-05-07T12:55:56;101178.75;;;20.59;68.96
39265;BME280;42646;51.910;7.724;2023-05-07T12:58:27;101172.31;;;20.60;69.80
39265;BME280;42646;51.910;7.724;2023-05-07T13:00:58;101171.69;;;20.58;69.56
39265;BME280;42646;51.910;7.724;2023-05-07T13:03:27;101174.63;;;20.63;69.62
39265;BME280;42646;51.910;7.724;2023-05-07T13:05:58;101172.31;;;20.60;68.86
39265;BME280;42646;51.910;7.724;2023-05-07T13:08:30;101170.44;;;20.61;68.57